createdAt,value
2018-02-12T17:03:11.476Z,44.20
2018-02-12T17:05:38.524Z,46.30
2018-02-12T17:08:05.640Z,46.70
2018-02-12T17:10:33.481Z,49.30
2018-02-12T17:13:00.517Z,49.30
2018-02-12T17:15:27.512Z,50.20
2018-02-12T17:17:54.608Z,49.10
2018-02-12T17:20:22.377Z,49.20
2018-02-12T17:22:50.132Z,48.40
2018-02-12T17:25:18.187Z,47.80
2018-02-12T17:27:44.938Z,47.80
2018-02-12T17:30:12.705Z,46.60
2018-02-12T17:32:39.813Z,46.60
2018-02-12T17:35:07.584Z,45.40
2018-02-12T17:37:35.478Z,45.40
2018-02-12T17:40:02.472Z,44.80
2018-02-12T17:42:29.464Z,44.50
2018-02-12T17:44:56.524Z,44.20
2018-02-12T17:47:24.283Z,43.50
2018-02-12T17:49:52.111Z,43.20
2018-02-12T17:52:19.156Z,43.20
2018-02-12T17:54:46.639Z,43.40
2018-02-12T17:57:13.727Z,42.60
2018-02-12T17:59:41.497Z,43.20
2018-02-12T18:02:09.262Z,42.50
2018-02-12T18:04:37.103Z,42.30
2018-02-12T18:07:05.432Z,42.00
2018-02-12T18:09:32.469Z,42.00
2018-02-12T18:11:59.564Z,42.00
2018-02-12T18:14:27.321Z,41.60
2018-02-12T18:16:55.079Z,41.60
2018-02-12T18:19:22.838Z,41.60
2018-02-12T18:21:49.832Z,41.50
2018-02-12T18:24:16.820Z,41.40
2018-02-12T18:26:43.811Z,41.40
2018-02-12T18:29:10.807Z,41.40
2018-02-12T18:31:37.917Z,41.60
2018-02-12T18:34:05.891Z,41.50
2018-02-12T18:36:32.880Z,41.90
2018-02-12T18:38:59.908Z,42.30
2018-02-12T18:41:27.770Z,42.50
2018-02-12T18:43:54.764Z,42.50
2018-02-12T18:46:21.769Z,42.60
2018-02-12T18:48:49.524Z,42.80
2018-02-12T18:51:16.537Z,42.80
2018-02-12T19:31:44.740Z,30.30
2018-02-12T19:34:11.756Z,30.40
2018-02-12T19:36:38.833Z,31.50
2018-02-12T19:39:05.840Z,32.70
2018-02-12T19:41:32.953Z,33.90
2018-02-12T19:43:59.962Z,35.50
2018-02-12T19:46:27.006Z,36.10
2018-02-12T19:48:54.768Z,37.30
2018-02-12T19:51:21.760Z,37.20
2018-02-12T19:53:49.849Z,38.10
2018-02-12T19:56:17.174Z,38.10
2018-02-12T20:02:34.130Z,27.30
2018-02-12T20:05:01.886Z,30.70
2018-02-12T20:07:28.926Z,30.50
2018-02-12T20:09:55.917Z,35.30
2018-02-12T20:12:22.903Z,39.80
2018-02-12T20:14:49.914Z,43.50
2018-02-12T20:17:16.938Z,46.50
2018-02-12T20:19:44.679Z,52.20
2018-02-12T20:22:12.587Z,53.90
2018-02-12T20:24:39.534Z,53.80
2018-02-12T20:27:06.535Z,56.00
2018-02-12T20:29:34.287Z,57.30
2018-02-12T20:32:01.272Z,57.20
2018-02-12T20:34:28.268Z,57.90
2018-02-12T20:36:55.295Z,58.50
2018-02-12T20:39:22.286Z,58.80
2018-02-12T20:41:50.044Z,59.60
2018-02-12T20:44:17.806Z,59.80
2018-02-12T20:46:44.802Z,59.80
2018-02-12T20:49:11.797Z,60.00
2018-02-12T20:51:38.812Z,60.20
2018-02-12T20:54:05.795Z,60.40
2018-02-12T20:56:33.575Z,60.70
2018-02-12T20:59:00.561Z,60.70
2018-02-12T21:01:27.555Z,60.70
2018-02-12T21:03:55.303Z,61.00
2018-02-12T21:06:22.302Z,61.00
2018-02-12T21:08:49.290Z,61.10
2018-02-12T21:11:16.282Z,61.20
2018-02-12T21:13:43.298Z,61.30
2018-02-12T21:16:11.059Z,61.50
2018-02-12T21:18:38.809Z,61.60
2018-02-12T21:21:05.807Z,61.50
2018-02-12T21:23:32.795Z,61.60
2018-02-12T21:25:59.919Z,61.60
2018-02-12T21:28:26.934Z,61.60
2018-02-12T21:30:54.663Z,61.50
2018-02-12T21:33:21.644Z,61.60
2018-02-12T21:35:48.628Z,61.60
2018-02-12T21:38:15.622Z,61.60
2018-02-12T21:40:43.410Z,61.50
2018-02-12T21:43:11.127Z,61.60
2018-02-12T21:45:38.120Z,61.50
2018-02-12T21:50:25.974Z,61.50
2018-02-12T21:52:53.091Z,61.60
2018-02-12T21:55:21.037Z,61.80
2018-02-12T21:57:48.044Z,61.70
2018-02-12T22:00:16.012Z,61.80
2018-02-12T22:02:43.012Z,61.70
2018-02-12T22:05:10.877Z,61.80
2018-02-12T22:07:37.965Z,61.80
2018-02-12T22:10:04.985Z,61.80
2018-02-12T22:12:31.988Z,61.80
2018-02-12T22:14:59.029Z,61.80
2018-02-12T22:17:26.017Z,61.80
2018-02-12T22:19:53.036Z,61.80
2018-02-12T22:22:20.804Z,61.80
2018-02-12T22:24:48.608Z,61.90
2018-02-12T22:27:15.651Z,61.80
2018-02-12T22:29:42.652Z,61.80
2018-02-12T22:32:09.641Z,61.90
2018-02-12T22:34:36.723Z,61.90
2018-02-12T22:37:03.743Z,61.90
2018-02-12T22:39:31.516Z,61.90
2018-02-12T22:41:59.320Z,62.00
2018-02-12T22:44:27.077Z,61.90
2018-02-12T22:46:54.180Z,61.90
2018-02-12T22:49:21.182Z,61.90
2018-02-12T22:51:48.998Z,62.00
2018-02-12T22:54:16.154Z,61.90
2018-02-12T22:56:43.927Z,62.00
2018-02-12T22:59:10.926Z,62.00
2018-02-12T23:01:38.002Z,62.00
2018-02-12T23:04:05.797Z,62.00
2018-02-12T23:06:33.659Z,62.00
2018-02-12T23:09:02.178Z,62.10
2018-02-12T23:11:29.168Z,61.90
2018-02-12T23:13:56.220Z,62.00
2018-02-12T23:16:23.225Z,62.00
2018-02-12T23:18:50.216Z,62.00
2018-02-12T23:21:17.976Z,62.00
2018-02-12T23:23:44.983Z,61.90
2018-02-12T23:26:12.747Z,62.00
2018-02-12T23:28:39.729Z,62.10
2018-02-12T23:31:07.682Z,62.60
2018-02-12T23:33:34.681Z,61.90
2018-02-12T23:36:01.800Z,61.90
2018-02-12T23:38:28.810Z,61.90
2018-02-12T23:40:56.668Z,62.00
2018-02-12T23:43:23.707Z,61.90
2018-02-12T23:45:50.717Z,61.90
2018-02-12T23:48:17.726Z,61.90
2018-02-12T23:50:45.567Z,62.00
2018-02-12T23:53:12.701Z,62.00
2018-02-12T23:55:40.476Z,62.00
2018-02-12T23:58:07.521Z,61.90
